Time;durP1;ratioP1;P1;durP2;ratioP2;P2;SDS_P1;SDS_P2;PMS_P1;PMS_P2;Temp;Humidity;BMP_temperature;BMP_pressure;BME280_temperature;BME280_humidity;BME280_pressure;Samples;Min_cycle;Max_cycle;Signal;HPM_P1;HPM_P2
2023/08/23 00:00:16;;;;;;;;;;;;;;;24.49;67.35;97191.47;614481;231;64766;-58
2023/08/23 00:02:43;;;;;;;;;;;;;;;24.49;67.33;97178.03;612964;231;38032;-58
2023/08/23 00:05:11;;;;;;;;;;;;;;;24.49;67.35;97175.34;612410;231;67174;-58
2023/08/23 00:07:38;;;;;;;;;;;;;;;24.49;67.32;97186.09;612416;231;66925;-58
2023/08/23 00:10:06;;;;;;;;;;;;;;;24.49;67.33;97186.09;612419;231;64540;-58
2023/08/23 00:12:34;;;;;;;;;;;;;;;24.49;67.29;97188.78;612429;231;67165;-58
2023/08/23 00:15:01;;;;;;;;;;;;;;;24.48;67.26;97187.19;612405;231;65650;-58
2023/08/23 00:17:29;;;;;;;;;;;;;;;24.50;67.33;97186.89;612377;231;62743;-59
2023/08/23 00:19:56;;;;;;;;;;;;;;;24.49;67.32;97185.30;612383;231;64892;-58
2023/08/23 00:22:24;;;;;;;;;;;;;;;24.48;67.33;97184.50;612428;231;64724;-58
2023/08/23 00:24:51;;;;;;;;;;;;;;;24.49;67.26;97190.67;612432;231;65031;-58
2023/08/23 00:27:19;;;;;;;;;;;;;;;24.49;67.29;97187.98;612391;231;64853;-59
2023/08/23 00:29:46;;;;;;;;;;;;;;;24.48;67.26;97176.45;612423;231;66966;-58
2023/08/23 00:32:14;;;;;;;;;;;;;;;24.48;67.26;97184.50;612378;231;62348;-58
2023/08/23 00:34:41;;;;;;;;;;;;;;;24.49;67.30;97186.09;614839;230;64501;-58
2023/08/23 00:37:09;;;;;;;;;;;;;;;24.49;67.30;97174.55;612437;231;66771;-58
2023/08/23 00:39:36;;;;;;;;;;;;;;;24.48;67.27;97189.88;612413;231;64698;-58
2023/08/23 00:42:04;;;;;;;;;;;;;;;24.49;67.28;97177.23;612401;231;64870;-58
2023/08/23 00:44:32;;;;;;;;;;;;;;;24.48;67.23;97181.82;612378;231;67350;-58
2023/08/23 00:47:00;;;;;;;;;;;;;;;24.48;67.22;97183.71;612401;231;62212;-58
2023/08/23 00:49:33;;;;;;;;;;;;;;;24.47;67.17;97174.86;612422;231;64548;-58
2023/08/23 00:51:57;;;;;;;;;;;;;;;24.48;67.24;97181.02;612252;231;64766;-58
2023/08/23 00:54:24;;;;;;;;;;;;;;;24.47;67.23;97185.61;612399;231;64883;-58
2023/08/23 00:56:55;;;;;;;;;;;;;;;24.47;67.18;97185.61;613573;230;65753;-58
2023/08/23 00:59:23;;;;;;;;;;;;;;;24.46;67.15;97181.30;612453;231;64631;-58
2023/08/23 01:01:51;;;;;;;;;;;;;;;24.47;67.09;97179.41;612499;231;62716;-58
2023/08/23 01:04:21;;;;;;;;;;;;;;;24.47;67.12;97180.23;612468;230;44376;-58
2023/08/23 01:06:50;;;;;;;;;;;;;;;24.48;67.17;97183.71;612455;231;66792;-59
2023/08/23 01:09:20;;;;;;;;;;;;;;;24.48;67.15;97183.71;612188;231;65211;-59
2023/08/23 01:11:53;;;;;;;;;;;;;;;24.48;67.17;97175.66;612276;231;65618;-59
2023/08/23 01:14:25;;;;;;;;;;;;;;;24.47;67.16;97185.61;610768;231;64461;-58
2023/08/23 01:16:52;;;;;;;;;;;;;;;24.46;67.11;97189.36;612279;231;64987;-58
2023/08/23 01:19:21;;;;;;;;;;;;;;;24.46;67.12;97186.67;612433;231;66730;-58
2023/08/23 01:21:51;;;;;;;;;;;;;;;24.48;67.09;97189.09;607564;231;64350;-58
2023/08/23 01:24:18;;;;;;;;;;;;;;;24.47;67.09;97185.61;612403;231;64784;-59
2023/08/23 01:26:46;;;;;;;;;;;;;;;24.46;67.09;97186.67;612428;231;64713;-58
2023/08/23 01:29:13;;;;;;;;;;;;;;;24.47;67.10;97185.61;612388;231;67100;-58
2023/08/23 01:31:43;;;;;;;;;;;;;;;24.46;67.07;97189.36;612407;231;62466;-58
2023/08/23 01:34:30;;;;;;;;;;;;;;;24.46;67.05;97192.05;612389;231;67164;-58
2023/08/23 01:36:58;;;;;;;;;;;;;;;24.47;67.06;97192.84;612393;231;67022;-58
2023/08/23 01:39:26;;;;;;;;;;;;;;;24.47;67.02;97192.84;612417;231;64702;-58
2023/08/23 01:41:54;;;;;;;;;;;;;;;24.47;67.02;97187.47;612395;231;65047;-58
2023/08/23 01:44:22;;;;;;;;;;;;;;;24.46;67.04;97185.88;612409;231;66883;-58
2023/08/23 01:46:49;;;;;;;;;;;;;;;24.45;67.03;97187.77;612394;231;64709;-59
2023/08/23 01:49:17;;;;;;;;;;;;;;;24.46;67.03;97185.88;612389;231;67118;-58
2023/08/23 01:51:45;;;;;;;;;;;;;;;24.45;67.02;97186.98;612417;231;64235;-59
2023/08/23 01:54:12;;;;;;;;;;;;;;;24.45;66.99;97179.72;612485;231;62335;-58
2023/08/23 01:56:40;;;;;;;;;;;;;;;24.46;66.99;97169.77;612432;231;67334;-58
2023/08/23 01:59:07;;;;;;;;;;;;;;;24.45;66.99;97182.40;613166;230;68306;-58
2023/08/23 02:01:35;;;;;;;;;;;;;;;24.45;66.99;97171.66;613845;230;65327;-58
2023/08/23 02:04:04;;;;;;;;;;;;;;;24.45;66.97;97168.97;606816;232;69434;-58
2023/08/23 02:06:31;;;;;;;;;;;;;;;24.45;66.95;97168.17;614139;230;66866;-58
2023/08/23 02:08:59;;;;;;;;;;;;;;;24.45;66.94;97171.66;612897;230;62419;-58
2023/08/23 02:11:26;;;;;;;;;;;;;;;24.45;66.92;97162.80;612477;231;67234;-59
2023/08/23 02:13:54;;;;;;;;;;;;;;;24.45;66.93;97162.80;612466;231;67227;-59
2023/08/23 02:16:22;;;;;;;;;;;;;;;24.45;66.91;97165.49;612483;231;63342;-59
2023/08/23 02:18:49;;;;;;;;;;;;;;;24.45;66.91;97162.80;609414;231;66888;-59
2023/08/23 02:21:17;;;;;;;;;;;;;;;24.44;66.89;97161.19;612486;231;64480;-59
2023/08/23 02:23:44;;;;;;;;;;;;;;;24.44;66.87;97167.36;612452;231;62483;-59
2023/08/23 02:26:12;;;;;;;;;;;;;;;24.44;66.85;97166.56;612457;231;65414;-59
2023/08/23 02:28:39;;;;;;;;;;;;;;;24.44;66.80;97158.50;612486;231;66827;-59
2023/08/23 02:31:07;;;;;;;;;;;;;;;24.45;66.75;97168.17;612497;231;64745;-59
2023/08/23 02:33:34;;;;;;;;;;;;;;;24.43;66.74;97160.36;612460;231;65672;-59
2023/08/23 02:36:02;;;;;;;;;;;;;;;24.43;66.71;97165.73;612457;231;64796;-59
2023/08/23 02:38:30;;;;;;;;;;;;;;;24.44;66.71;97166.56;612462;231;64966;-59
2023/08/23 02:40:57;;;;;;;;;;;;;;;24.44;66.67;97161.98;612463;231;68182;-59
2023/08/23 02:43:25;;;;;;;;;;;;;;;24.43;66.64;97163.05;612440;231;65492;-59
2023/08/23 02:45:54;;;;;;;;;;;;;;;24.44;66.61;97163.88;612445;231;65483;-58
2023/08/23 02:48:23;;;;;;;;;;;;;;;24.44;66.58;97158.50;612425;231;64738;-58
2023/08/23 02:50:50;;;;;;;;;;;;;;;24.43;66.61;97157.68;612580;230;67042;-58
2023/08/23 02:53:19;;;;;;;;;;;;;;;24.43;66.56;97163.05;612479;231;63366;-58
2023/08/23 02:55:46;;;;;;;;;;;;;;;24.43;66.57;97160.36;612426;231;67335;-58
2023/08/23 02:58:14;;;;;;;;;;;;;;;24.43;66.56;97165.73;612444;231;64297;-58
2023/08/23 03:00:42;;;;;;;;;;;;;;;24.43;66.51;97160.36;612484;231;63464;-58
2023/08/23 03:03:09;;;;;;;;;;;;;;;24.43;66.50;97168.42;612446;231;64757;-58
2023/08/23 03:05:38;;;;;;;;;;;;;;;24.43;66.49;97167.63;612463;231;67422;-58
2023/08/23 03:08:07;;;;;;;;;;;;;;;24.43;66.48;97168.42;612427;231;65470;-58
2023/08/23 03:10:36;;;;;;;;;;;;;;;24.43;66.48;97179.17;612415;231;45745;-59
2023/08/23 03:13:03;;;;;;;;;;;;;;;24.43;66.47;97168.42;612411;230;68133;-59
2023/08/23 03:15:31;;;;;;;;;;;;;;;24.43;66.45;97167.63;612439;231;64802;-58
2023/08/23 03:17:59;;;;;;;;;;;;;;;24.42;66.45;97174.89;612419;231;64616;-58
2023/08/23 03:20:27;;;;;;;;;;;;;;;24.42;66.45;97174.89;612458;231;67423;-58
2023/08/23 03:22:54;;;;;;;;;;;;;;;24.42;66.44;97174.89;612413;231;64885;-58
2023/08/23 03:25:22;;;;;;;;;;;;;;;24.42;66.44;97174.89;612403;230;67191;-58
2023/08/23 03:27:56;;;;;;;;;;;;;;;24.42;66.40;97172.20;612422;231;65784;-60
2023/08/23 03:30:20;;;;;;;;;;;;;;;24.42;66.41;97177.58;612347;231;62534;-59
2023/08/23 03:32:48;;;;;;;;;;;;;;;24.42;66.40;97182.13;612440;231;67436;-59
2023/08/23 03:35:16;;;;;;;;;;;;;;;24.42;66.41;97179.44;612412;231;66976;-59
2023/08/23 03:37:44;;;;;;;;;;;;;;;24.42;66.39;97177.58;612384;231;62346;-59
2023/08/23 03:40:11;;;;;;;;;;;;;;;24.41;66.36;97178.66;612427;231;67437;-59
2023/08/23 03:42:39;;;;;;;;;;;;;;;24.42;66.37;97182.95;612405;231;67029;-59
2023/08/23 03:45:07;;;;;;;;;;;;;;;24.41;66.38;97175.96;612438;231;63675;-59
2023/08/23 03:47:34;;;;;;;;;;;;;;;24.41;66.34;97181.34;612423;231;67267;-59
2023/08/23 03:50:02;;;;;;;;;;;;;;;24.42;66.34;97185.64;612363;231;64660;-59
2023/08/23 03:52:30;;;;;;;;;;;;;;;24.41;66.34;97178.66;612435;231;65522;-59
2023/08/23 03:54:58;;;;;;;;;;;;;;;24.41;66.30;97189.39;612461;231;64858;-59
2023/08/23 03:57:26;;;;;;;;;;;;;;;24.40;66.33;97174.38;612397;231;66889;-59
2023/08/23 03:59:54;;;;;;;;;;;;;;;24.41;66.27;97173.28;612429;231;63330;-58
2023/08/23 04:02:22;;;;;;;;;;;;;;;24.41;66.27;97181.34;612372;231;64512;-58
2023/08/23 04:04:49;;;;;;;;;;;;;;;24.41;66.26;97178.66;612398;231;67790;-58
2023/08/23 04:07:18;;;;;;;;;;;;;;;24.41;66.23;97178.66;612393;231;62343;-59
2023/08/23 04:09:46;;;;;;;;;;;;;;;24.42;66.23;97171.39;612414;231;67040;-58
2023/08/23 04:12:13;;;;;;;;;;;;;;;24.41;66.24;97178.66;612414;231;64775;-58
2023/08/23 04:14:41;;;;;;;;;;;;;;;24.41;66.23;97180.55;612388;231;62778;-58
2023/08/23 04:17:08;;;;;;;;;;;;;;;24.41;66.24;97172.48;612373;231;67196;-58
2023/08/23 04:19:36;;;;;;;;;;;;;;;24.41;66.19;97170.59;612441;231;64247;-58
2023/08/23 04:22:04;;;;;;;;;;;;;;;24.40;66.18;97174.38;612426;231;64818;-58
2023/08/23 04:24:31;;;;;;;;;;;;;;;24.41;66.19;97167.91;612400;231;67174;-58
2023/08/23 04:26:59;;;;;;;;;;;;;;;24.40;66.17;97160.95;612411;231;67597;-58
2023/08/23 04:29:26;;;;;;;;;;;;;;;24.40;66.17;97171.69;612412;231;64684;-58
2023/08/23 04:31:54;;;;;;;;;;;;;;;24.41;66.16;97172.48;612390;231;64986;-58
2023/08/23 04:34:23;;;;;;;;;;;;;;;24.40;66.16;97179.75;611839;230;44213;-59
2023/08/23 04:36:51;;;;;;;;;;;;;;;24.40;66.15;97166.31;614479;231;65192;-58
2023/08/23 04:39:19;;;;;;;;;;;;;;;24.39;66.13;97170.10;614470;231;67200;-59
2023/08/23 04:41:46;;;;;;;;;;;;;;;24.41;66.11;97172.48;612477;231;64878;-58
2023/08/23 04:44:14;;;;;;;;;;;;;;;24.39;66.12;97170.10;612445;231;62728;-58
2023/08/23 04:46:41;;;;;;;;;;;;;;;24.39;66.12;97175.48;612369;231;68987;-58
2023/08/23 04:49:10;;;;;;;;;;;;;;;24.39;66.26;97170.10;612398;231;67672;-58
2023/08/23 04:51:37;;;;;;;;;;;;;;;24.38;66.21;97169.28;612373;231;64916;-58
2023/08/23 04:54:05;;;;;;;;;;;;;;;24.40;66.15;97177.06;612420;231;68111;-59
2023/08/23 04:56:34;;;;;;;;;;;;;;;24.39;66.11;97175.48;612404;231;66980;-59
2023/08/23 04:59:02;;;;;;;;;;;;;;;24.38;66.14;97171.97;612387;231;66380;-59
2023/08/23 05:01:30;;;;;;;;;;;;;;;24.40;66.68;97187.02;612404;231;65052;-59
2023/08/23 05:03:58;;;;;;;;;;;;;;;24.39;66.11;97183.53;612430;231;65121;-59
2023/08/23 05:06:25;;;;;;;;;;;;;;;24.38;66.45;97182.71;612430;231;62719;-59
2023/08/23 05:08:53;;;;;;;;;;;;;;;24.37;66.11;97178.44;612436;231;67304;-59
2023/08/23 05:11:22;;;;;;;;;;;;;;;24.38;66.08;97180.02;612405;231;43451;-59
2023/08/23 05:13:51;;;;;;;;;;;;;;;24.38;66.13;97181.92;612447;231;64724;-59
2023/08/23 05:16:19;;;;;;;;;;;;;;;24.39;66.10;97180.84;612391;231;64613;-59
2023/08/23 05:18:47;;;;;;;;;;;;;;;24.38;66.13;97188.08;612424;231;66965;-59
2023/08/23 05:21:14;;;;;;;;;;;;;;;24.38;66.17;97174.66;612416;231;64874;-58
2023/08/23 05:23:42;;;;;;;;;;;;;;;24.37;66.12;97174.95;612105;231;66912;-58
2023/08/23 05:26:09;;;;;;;;;;;;;;;24.38;66.08;97181.92;612825;231;64453;-58
2023/08/23 05:28:37;;;;;;;;;;;;;;;24.37;66.03;97173.06;612446;231;65646;-59
2023/08/23 05:31:04;;;;;;;;;;;;;;;24.38;66.04;97184.60;614529;230;66822;-58
2023/08/23 05:33:33;;;;;;;;;;;;;;;24.38;66.10;97180.02;612424;231;65455;-59
2023/08/23 05:36:02;;;;;;;;;;;;;;;24.38;66.08;97181.92;612465;230;41841;-58
2023/08/23 05:38:30;;;;;;;;;;;;;;;24.38;66.04;97181.92;612377;231;64649;-59
2023/08/23 05:40:59;;;;;;;;;;;;;;;24.38;66.01;97181.92;612394;231;67434;-58
2023/08/23 05:43:27;;;;;;;;;;;;;;;24.38;66.04;97189.98;612412;231;62206;-57
2023/08/23 05:45:56;;;;;;;;;;;;;;;24.37;66.02;97189.18;612378;231;67209;-60
2023/08/23 05:48:24;;;;;;;;;;;;;;;24.37;67.43;97186.50;612445;231;66949;-60
2023/08/23 05:50:51;;;;;;;;;;;;;;;24.37;66.47;97186.50;612418;231;62326;-58
2023/08/23 05:53:19;;;;;;;;;;;;;;;24.37;66.02;97193.77;612344;231;67548;-60
2023/08/23 05:55:48;;;;;;;;;;;;;;;24.37;65.98;97194.55;612401;231;66843;-60
2023/08/23 05:58:18;;;;;;;;;;;;;;;24.36;66.00;97192.97;612396;231;62292;-61
2023/08/23 06:00:46;;;;;;;;;;;;;;;24.36;66.12;97187.59;611611;231;66913;-58
2023/08/23 06:03:16;;;;;;;;;;;;;;;24.37;66.01;97183.02;612354;231;66821;-60
2023/08/23 06:05:45;;;;;;;;;;;;;;;24.37;66.02;97183.81;611422;231;64140;-60
2023/08/23 06:08:12;;;;;;;;;;;;;;;24.37;66.07;97188.39;603178;231;67647;-56
2023/08/23 06:10:40;;;;;;;;;;;;;;;24.37;66.08;97183.81;615531;229;64790;-58
2023/08/23 06:13:07;;;;;;;;;;;;;;;24.37;66.10;97183.81;616405;229;62365;-58
2023/08/23 06:15:35;;;;;;;;;;;;;;;24.37;66.12;97185.70;612343;229;64836;-58
2023/08/23 06:18:03;;;;;;;;;;;;;;;24.37;66.14;97189.18;616784;229;66946;-57
2023/08/23 06:20:30;;;;;;;;;;;;;;;24.36;66.14;97184.91;613788;229;64804;-62
2023/08/23 06:22:58;;;;;;;;;;;;;;;24.37;66.15;97188.39;619797;229;66747;-65
2023/08/23 06:25:26;;;;;;;;;;;;;;;24.37;66.14;97183.02;617603;229;66441;-63
2023/08/23 06:27:53;;;;;;;;;;;;;;;24.38;66.18;97189.98;619190;229;64538;-63
2023/08/23 06:30:21;;;;;;;;;;;;;;;24.38;66.19;97187.29;617776;229;66750;-59
2023/08/23 06:32:49;;;;;;;;;;;;;;;24.38;66.25;97187.29;619765;229;66612;-62
2023/08/23 06:35:17;;;;;;;;;;;;;;;24.37;66.26;97183.81;619670;229;64738;-60
2023/08/23 06:37:45;;;;;;;;;;;;;;;24.38;66.26;97184.60;619702;229;66578;-64
2023/08/23 06:40:13;;;;;;;;;;;;;;;24.37;66.27;97183.02;616609;229;64458;-65
2023/08/23 06:42:41;;;;;;;;;;;;;;;24.37;66.30;97181.13;612355;231;64810;-65
2023/08/23 06:45:09;;;;;;;;;;;;;;;24.38;66.36;97180.02;612312;231;66740;-64
2023/08/23 06:47:37;;;;;;;;;;;;;;;24.38;66.36;97174.66;612377;231;66474;-65
2023/08/23 06:50:07;;;;;;;;;;;;;;;24.39;66.40;97180.84;612307;231;45881;-64
2023/08/23 06:52:35;;;;;;;;;;;;;;;24.38;66.39;97180.02;612320;231;66915;-65
2023/08/23 06:55:03;;;;;;;;;;;;;;;24.38;66.43;97187.29;612340;231;64698;-64
2023/08/23 06:57:33;;;;;;;;;;;;;;;24.38;66.44;97184.60;612217;231;51249;-65
2023/08/23 07:00:00;;;;;;;;;;;;;;;24.38;66.46;97188.08;605531;230;66842;-66
2023/08/23 07:02:28;;;;;;;;;;;;;;;24.39;66.49;97188.91;614051;230;66651;-68
2023/08/23 07:04:55;;;;;;;;;;;;;;;24.38;66.50;97185.39;612362;231;62435;-66
2023/08/23 07:07:23;;;;;;;;;;;;;;;24.40;66.50;97187.02;612332;231;64548;-66
2023/08/23 07:09:50;;;;;;;;;;;;;;;24.39;66.54;97183.53;612407;231;66868;-65
2023/08/23 07:12:18;;;;;;;;;;;;;;;24.39;66.58;97180.84;612313;231;62448;-65
2023/08/23 07:14:49;;;;;;;;;;;;;;;24.40;66.59;97178.95;612389;231;65155;-65
2023/08/23 07:17:17;;;;;;;;;;;;;;;24.40;66.61;97182.44;612305;231;66756;-66
2023/08/23 07:19:44;;;;;;;;;;;;;;;24.41;66.60;97164.42;613939;230;64885;-65
2023/08/23 07:22:13;;;;;;;;;;;;;;;24.40;66.97;97160.95;615808;230;67127;-66
2023/08/23 07:24:41;;;;;;;;;;;;;;;24.40;66.76;97157.47;616297;230;67783;-66
2023/08/23 07:27:11;;;;;;;;;;;;;;;24.40;66.64;97171.69;615747;230;64636;-65
2023/08/23 07:29:39;;;;;;;;;;;;;;;24.41;66.73;97162.53;612383;231;66720;-67
2023/08/23 07:32:07;;;;;;;;;;;;;;;24.42;66.73;97163.33;612122;231;64488;-67
2023/08/23 07:34:35;;;;;;;;;;;;;;;24.42;66.71;97158.78;612006;231;62693;-64
2023/08/23 07:37:03;;;;;;;;;;;;;;;24.44;66.72;97158.50;612237;231;66742;-66
2023/08/23 07:39:30;;;;;;;;;;;;;;;24.44;66.68;97151.23;612238;231;65667;-67
2023/08/23 07:41:58;;;;;;;;;;;;;;;24.44;66.68;97151.23;612304;231;64666;-66
2023/08/23 07:44:25;;;;;;;;;;;;;;;24.45;66.70;97144.80;612348;231;66698;-66
2023/08/23 07:46:53;;;;;;;;;;;;;;;24.47;66.70;97147.99;612308;231;64548;-66
2023/08/23 07:49:21;;;;;;;;;;;;;;;24.47;66.58;97149.86;612314;231;62470;-67
2023/08/23 07:51:48;;;;;;;;;;;;;;;24.47;66.68;97144.48;612347;231;64453;-67
2023/08/23 07:54:15;;;;;;;;;;;;;;;24.46;66.71;97149.06;612360;231;66727;-66
2023/08/23 07:56:43;;;;;;;;;;;;;;;24.46;66.68;97151.75;604621;231;62520;-66
2023/08/23 07:59:10;;;;;;;;;;;;;;;24.46;66.69;97143.69;609888;231;64740;-65
2023/08/23 08:01:38;;;;;;;;;;;;;;;24.46;66.69;97141.01;612284;231;67701;-66
2023/08/23 08:04:06;;;;;;;;;;;;;;;24.47;66.70;97147.17;612385;231;62530;-67
2023/08/23 08:06:34;;;;;;;;;;;;;;;24.47;66.65;97147.17;612322;231;64356;-63
2023/08/23 08:09:01;;;;;;;;;;;;;;;24.47;66.67;97142.63;612258;231;64707;-65
2023/08/23 08:11:29;;;;;;;;;;;;;;;24.47;66.69;97142.63;612359;231;64590;-66
2023/08/23 08:13:56;;;;;;;;;;;;;;;24.47;66.77;97141.80;612371;231;66885;-65
2023/08/23 08:16:23;;;;;;;;;;;;;;;24.48;66.83;97144.20;612308;231;66825;-64
2023/08/23 08:18:51;;;;;;;;;;;;;;;24.48;66.91;97146.89;612338;230;62204;-64
2023/08/23 08:21:19;;;;;;;;;;;;;;;24.47;66.92;97139.94;612264;231;64296;-65
2023/08/23 08:23:47;;;;;;;;;;;;;;;24.48;66.91;97141.52;612320;231;66664;-65
2023/08/23 08:26:16;;;;;;;;;;;;;;;24.48;66.96;97144.20;612038;231;64600;-68
2023/08/23 08:28:45;;;;;;;;;;;;;;;24.50;66.91;97139.35;612299;231;64466;-68
2023/08/23 08:31:13;;;;;;;;;;;;;;;24.50;66.90;97139.35;612314;231;66759;-68
2023/08/23 08:33:42;;;;;;;;;;;;;;;24.50;66.86;97138.53;612363;231;64991;-68
2023/08/23 08:36:09;;;;;;;;;;;;;;;24.50;66.89;97146.59;601840;231;67159;-68
2023/08/23 08:38:37;;;;;;;;;;;;;;;24.50;66.82;97142.04;611764;232;66634;-68
2023/08/23 08:41:05;;;;;;;;;;;;;;;24.50;66.81;97144.72;611912;231;65550;-67
2023/08/23 08:43:32;;;;;;;;;;;;;;;24.51;66.77;97137.46;612306;231;64532;-68
2023/08/23 08:46:01;;;;;;;;;;;;;;;24.51;66.80;97135.56;612318;231;66648;-67
2023/08/23 08:48:28;;;;;;;;;;;;;;;24.51;66.77;97135.56;611912;231;65403;-65
2023/08/23 08:50:56;;;;;;;;;;;;;;;24.52;66.81;97139.84;612229;231;65501;-65
2023/08/23 08:53:25;;;;;;;;;;;;;;;24.52;66.87;97139.84;612256;231;66798;-65
2023/08/23 08:55:53;;;;;;;;;;;;;;;24.52;66.96;97139.84;612340;231;62400;-65
2023/08/23 08:58:21;;;;;;;;;;;;;;;24.51;66.95;97143.63;612749;230;66957;-65
2023/08/23 09:00:49;;;;;;;;;;;;;;;24.52;66.84;97139.84;614884;230;64820;-66
2023/08/23 09:03:20;;;;;;;;;;;;;;;24.53;66.84;97148.72;614901;230;62431;-64
2023/08/23 09:05:48;;;;;;;;;;;;;;;24.52;66.79;97147.90;613219;230;64387;-67
2023/08/23 09:08:16;;;;;;;;;;;;;;;24.53;66.75;97143.34;611777;232;66709;-69
2023/08/23 09:10:44;;;;;;;;;;;;;;;24.53;66.75;97138.77;611804;232;64733;-69
2023/08/23 09:13:12;;;;;;;;;;;;;;;24.54;66.60;97139.56;612231;231;64326;-67
2023/08/23 09:15:40;;;;;;;;;;;;;;;24.54;66.61;97140.35;612462;230;67077;-66
2023/08/23 09:18:07;;;;;;;;;;;;;;;24.54;66.61;97140.35;612418;231;64619;-64
2023/08/23 09:20:36;;;;;;;;;;;;;;;24.55;66.59;97131.22;612348;231;66670;-63
2023/08/23 09:23:04;;;;;;;;;;;;;;;24.54;66.54;97129.61;613357;230;64731;-63
2023/08/23 09:25:31;;;;;;;;;;;;;;;24.54;66.49;97124.23;613390;230;64898;-63
2023/08/23 09:27:59;;;;;;;;;;;;;;;24.55;66.39;97125.84;612351;231;66474;-63
2023/08/23 09:30:27;;;;;;;;;;;;;;;24.55;66.42;97120.47;612330;231;66317;-65
2023/08/23 09:32:56;;;;;;;;;;;;;;;24.55;66.39;97117.79;612335;231;64757;-65
2023/08/23 09:35:29;;;;;;;;;;;;;;;24.56;66.47;97105.94;611711;231;66675;-64
2023/08/23 09:37:53;;;;;;;;;;;;;;;24.54;66.49;97108.11;612147;231;64458;-67
2023/08/23 09:40:21;;;;;;;;;;;;;;;24.56;66.24;97105.14;612339;231;62881;-66
2023/08/23 09:42:49;;;;;;;;;;;;;;;24.56;65.94;97099.77;612364;231;64516;-68
2023/08/23 09:45:18;;;;;;;;;;;;;;;24.56;65.80;97097.87;611970;231;66797;-68
2023/08/23 09:47:47;;;;;;;;;;;;;;;24.57;65.82;97102.15;612162;231;62452;-67
2023/08/23 09:50:16;;;;;;;;;;;;;;;24.56;65.83;97089.81;612232;231;64588;-67
2023/08/23 09:52:43;;;;;;;;;;;;;;;24.57;65.99;97094.09;612306;231;66794;-67
2023/08/23 09:55:11;;;;;;;;;;;;;;;24.56;65.96;97087.13;612480;230;62596;-67
2023/08/23 09:57:40;;;;;;;;;;;;;;;24.58;65.96;97089.52;612380;231;64194;-65
2023/08/23 10:00:08;;;;;;;;;;;;;;;24.57;65.76;97088.72;612294;231;66958;-66
2023/08/23 10:02:37;;;;;;;;;;;;;;;24.59;65.59;97083.06;611945;231;62621;-65
2023/08/23 10:05:06;;;;;;;;;;;;;;;24.58;65.76;97078.77;612160;231;67070;-66
2023/08/23 10:07:34;;;;;;;;;;;;;;;24.58;65.86;97074.21;612333;231;66852;-65
2023/08/23 10:10:03;;;;;;;;;;;;;;;24.58;66.01;97076.90;612358;231;64657;-65
2023/08/23 10:12:32;;;;;;;;;;;;;;;24.57;66.09;97072.59;612332;231;66844;-60
2023/08/23 10:15:00;;;;;;;;;;;;;;;24.58;65.92;97068.84;610681;231;64743;-62
2023/08/23 10:17:29;;;;;;;;;;;;;;;24.58;65.79;97071.53;612299;231;62472;-62
2023/08/23 10:19:56;;;;;;;;;;;;;;;24.59;65.73;97077.69;612346;231;66937;-64
2023/08/23 10:22:24;;;;;;;;;;;;;;;24.59;65.66;97067.73;612321;231;66918;-64
2023/08/23 10:24:52;;;;;;;;;;;;;;;24.60;65.74;97065.84;614056;230;64675;-65
2023/08/23 10:27:21;;;;;;;;;;;;;;;24.59;65.71;97072.31;614920;230;66864;-64
2023/08/23 10:29:52;;;;;;;;;;;;;;;24.59;65.63;97067.73;612016;230;64413;-63
2023/08/23 10:32:20;;;;;;;;;;;;;;;24.59;65.55;97058.88;612327;231;64853;-64
2023/08/23 10:34:47;;;;;;;;;;;;;;;24.59;65.63;97056.98;613153;230;64743;-64
2023/08/23 10:37:15;;;;;;;;;;;;;;;24.61;65.68;97058.57;613837;230;65138;-67
2023/08/23 10:39:48;;;;;;;;;;;;;;;24.61;65.65;97061.27;612347;231;64880;-63
2023/08/23 10:42:17;;;;;;;;;;;;;;;24.61;65.28;97053.20;612372;231;65049;-63
2023/08/23 10:44:49;;;;;;;;;;;;;;;24.61;65.50;97050.52;611532;231;66980;-63
2023/08/23 10:47:17;;;;;;;;;;;;;;;24.63;65.36;97053.71;611568;231;64496;-63
2023/08/23 10:49:46;;;;;;;;;;;;;;;24.62;65.42;97036.80;611747;232;67236;-64
2023/08/23 10:52:14;;;;;;;;;;;;;;;24.61;65.77;97037.08;611688;232;64968;-65
2023/08/23 10:54:42;;;;;;;;;;;;;;;24.62;65.67;97044.06;611740;231;64991;-64
2023/08/23 10:57:10;;;;;;;;;;;;;;;24.62;65.39;97044.06;606679;230;66800;-64
2023/08/23 10:59:37;;;;;;;;;;;;;;;24.63;65.45;97040.28;609786;230;65910;-66
2023/08/23 11:02:06;;;;;;;;;;;;;;;24.63;65.36;97034.91;610077;230;62433;-64
2023/08/23 11:04:34;;;;;;;;;;;;;;;24.63;65.32;97038.38;613257;230;65107;-67
2023/08/23 11:07:02;;;;;;;;;;;;;;;24.63;65.37;97034.91;611822;229;64985;-67
2023/08/23 11:09:30;;;;;;;;;;;;;;;24.66;64.78;97026.25;618219;227;64665;-66
2023/08/23 11:11:58;;;;;;;;;;;;;;;24.67;64.91;97020.59;616833;229;67890;-67
2023/08/23 11:14:26;;;;;;;;;;;;;;;24.69;64.96;97022.97;613693;229;66871;-66
2023/08/23 11:16:53;;;;;;;;;;;;;;;24.71;64.99;97020.80;610669;232;62455;-68
2023/08/23 11:19:21;;;;;;;;;;;;;;;24.70;64.80;97017.31;609309;232;64904;-65
2023/08/23 11:21:56;;;;;;;;;;;;;;;24.71;65.01;97015.42;607975;233;64840;-67
2023/08/23 11:24:20;;;;;;;;;;;;;;;24.71;64.75;97016.21;607551;233;45912;-65
2023/08/23 11:26:47;;;;;;;;;;;;;;;24.73;64.61;97007.87;607941;233;67194;-65
2023/08/23 11:29:15;;;;;;;;;;;;;;;24.74;64.76;97010.24;604413;232;67044;-65
2023/08/23 11:31:42;;;;;;;;;;;;;;;24.74;64.80;97004.87;610932;232;63513;-65
2023/08/23 11:34:19;;;;;;;;;;;;;;;24.75;64.82;97001.11;611683;232;67052;-66
2023/08/23 11:36:45;;;;;;;;;;;;;;;24.76;64.71;96996.52;610305;232;66978;-65
2023/08/23 11:39:14;;;;;;;;;;;;;;;24.76;64.48;96993.84;609329;232;63327;-64
2023/08/23 11:41:42;;;;;;;;;;;;;;;24.77;64.54;96993.55;607908;233;67071;-68
2023/08/23 11:44:10;;;;;;;;;;;;;;;24.75;64.53;96995.73;607982;233;66678;-68
2023/08/23 11:46:40;;;;;;;;;;;;;;;24.75;64.83;96992.25;607999;233;64869;-67
2023/08/23 11:49:09;;;;;;;;;;;;;;;24.73;65.10;96987.16;608036;233;67264;-68
2023/08/23 11:51:49;;;;;;;;;;;;;;;24.71;65.02;96989.34;608005;233;67242;-67
2023/08/23 11:54:14;;;;;;;;;;;;;;;24.72;65.00;96979.41;607836;233;65221;-61
2023/08/23 11:56:43;;;;;;;;;;;;;;;24.71;64.96;96967.05;608050;233;67219;-63
2023/08/23 12:46:18;;;;;;;;;;;;;;;24.63;65.02;96938.17;609784;231;36396;-65
2023/08/23 12:48:46;;;;;;;;;;;;;;;24.64;65.20;96945.16;614657;229;64053;-65
2023/08/23 12:51:14;;;;;;;;;;;;;;;24.63;65.16;96938.97;615708;228;63783;-65
2023/08/23 12:53:41;;;;;;;;;;;;;;;24.64;65.25;96934.41;615478;229;64836;-66
2023/08/23 12:56:09;;;;;;;;;;;;;;;24.65;65.19;96941.37;618151;229;64201;-65
2023/08/23 12:58:36;;;;;;;;;;;;;;;24.64;65.19;96935.20;614474;229;65180;-66
2023/08/23 13:01:05;;;;;;;;;;;;;;;24.66;65.14;96930.30;618001;229;64602;-64
2023/08/23 13:03:33;;;;;;;;;;;;;;;24.67;65.25;96928.44;616538;228;62089;-65
2023/08/23 13:06:00;;;;;;;;;;;;;;;24.67;65.28;96929.23;616960;228;63811;-67
2023/08/23 13:08:28;;;;;;;;;;;;;;;24.68;65.20;96924.65;611675;229;64652;-65
2023/08/23 13:10:55;;;;;;;;;;;;;;;24.68;65.45;96925.44;615153;228;64378;-66
2023/08/23 13:13:23;;;;;;;;;;;;;;;24.70;65.35;96925.16;607269;231;65026;-64
2023/08/23 13:15:50;;;;;;;;;;;;;;;24.71;65.29;96924.05;609646;231;62128;-65
2023/08/23 13:18:18;;;;;;;;;;;;;;;24.70;65.35;96914.41;611195;230;62281;-64
2023/08/23 13:20:46;;;;;;;;;;;;;;;24.70;65.37;96906.34;610571;230;63637;-65
2023/08/23 13:23:13;;;;;;;;;;;;;;;24.71;65.46;96913.30;608703;229;64746;-65
2023/08/23 13:25:41;;;;;;;;;;;;;;;24.71;65.26;96907.92;618918;229;64378;-66
2023/08/23 13:28:08;;;;;;;;;;;;;;;24.71;65.28;96897.97;618049;229;64949;-63
2023/08/23 13:30:36;;;;;;;;;;;;;;;24.72;65.31;96899.58;617974;229;64541;-61
2023/08/23 13:33:03;;;;;;;;;;;;;;;24.72;65.29;96890.73;616589;229;64282;-66
2023/08/23 13:35:31;;;;;;;;;;;;;;;24.72;65.31;96904.16;611407;229;65131;-64
2023/08/23 13:37:59;;;;;;;;;;;;;;;24.72;65.40;96904.95;618035;229;63271;-64